sensor_id;sensor_type;location;lat;lon;timestamp;pressure;altitude;pressure_sealevel;temperature;humidity
27685;BME280;46113;50.130;8.526;2023-12-07T05:16:47;99503.34;;;-2.81;85.07
27685;BME280;46113;50.130;8.526;2023-12-07T05:19:15;99507.63;;;-2.81;85.30
27685;BME280;46113;50.130;8.526;2023-12-07T05:21:41;99505.06;;;-2.78;85.71
27685;BME280;46113;50.130;8.526;2023-12-07T05:24:08;99506.78;;;-2.76;85.13
27685;BME280;46113;50.130;8.526;2023-12-07T05:26:35;99499.00;;;-2.83;85.50
27685;BME280;46113;50.130;8.526;2023-12-07T05:29:02;99502.47;;;-2.81;85.19
27685;BME280;46113;50.130;8.526;2023-12-07T05:31:30;99502.47;;;-2.80;85.39
27685;BME280;46113;50.130;8.526;2023-12-07T05:33:57;99501.59;;;-2.83;85.38
27685;BME280;46113;50.130;8.526;2023-12-07T05:36:24;99507.63;;;-2.89;84.98
27685;BME280;46113;50.130;8.526;2023-12-07T05:38:50;99507.59;;;-2.98;84.92
27685;BME280;46113;50.130;8.526;2023-12-07T05:41:17;99515.38;;;-3.02;84.08
27685;BME280;46113;50.130;8.526;2023-12-07T05:43:44;99511.03;;;-3.17;84.61
27685;BME280;46113;50.130;8.526;2023-12-07T05:46:11;99518.78;;;-3.28;84.67
27685;BME280;46113;50.130;8.526;2023-12-07T05:48:38;99523.91;;;-3.37;83.96
27685;BME280;46113;50.130;8.526;2023-12-07T05:51:05;99524.69;;;-3.58;85.18
27685;BME280;46113;50.130;8.526;2023-12-07T05:53:32;99527.34;;;-3.41;85.12
27685;BME280;46113;50.130;8.526;2023-12-07T05:55:59;99525.66;;;-3.34;85.10
27685;BME280;46113;50.130;8.526;2023-12-07T05:58:29;99529.97;;;-3.27;84.97
27685;BME280;46113;50.130;8.526;2023-12-07T06:00:57;99527.41;;;-3.25;85.47
27685;BME280;46113;50.130;8.526;2023-12-07T06:03:24;99528.28;;;-3.16;85.51
27685;BME280;46113;50.130;8.526;2023-12-07T06:05:52;99532.59;;;-3.13;85.63
27685;BME280;46113;50.130;8.526;2023-12-07T06:08:19;99531.75;;;-3.12;85.61
27685;BME280;46113;50.130;8.526;2023-12-07T06:10:46;99534.34;;;-3.12;85.91
27685;BME280;46113;50.130;8.526;2023-12-07T06:13:13;99532.63;;;-3.04;85.45
27685;BME280;46113;50.130;8.526;2023-12-07T06:15:40;99528.31;;;-3.09;85.66
27685;BME280;46113;50.130;8.526;2023-12-07T06:18:07;99541.22;;;-3.14;86.10
27685;BME280;46113;50.130;8.526;2023-12-07T06:20:35;99533.50;;;-2.98;85.78
27685;BME280;46113;50.130;8.526;2023-12-07T06:23:01;99541.28;;;-2.95;86.65
27685;BME280;46113;50.130;8.526;2023-12-07T06:25:28;99548.13;;;-3.24;85.89
27685;BME280;46113;50.130;8.526;2023-12-07T06:27:55;99547.25;;;-3.17;86.69
27685;BME280;46113;50.130;8.526;2023-12-07T06:30:22;99555.94;;;-3.02;86.81
27685;BME280;46113;50.130;8.526;2023-12-07T06:32:49;99555.94;;;-3.04;86.32
27685;BME280;46113;50.130;8.526;2023-12-07T06:35:16;99549.06;;;-2.89;86.22
27685;BME280;46113;50.130;8.526;2023-12-07T06:37:42;99549.94;;;-2.87;86.08
27685;BME280;46113;50.130;8.526;2023-12-07T06:40:09;99545.63;;;-2.91;86.46
27685;BME280;46113;50.130;8.526;2023-12-07T06:42:36;99555.13;;;-2.87;86.26
27685;BME280;46113;50.130;8.526;2023-12-07T06:45:03;99555.09;;;-2.99;86.41
27685;BME280;46113;50.130;8.526;2023-12-07T06:47:30;99566.28;;;-3.04;86.77
27685;BME280;46113;50.130;8.526;2023-12-07T06:49:57;99562.69;;;-3.43;88.44
27685;BME280;46113;50.130;8.526;2023-12-07T06:52:25;99563.66;;;-3.24;88.45
27685;BME280;46113;50.130;8.526;2023-12-07T06:54:51;99568.78;;;-3.32;87.83
27685;BME280;46113;50.130;8.526;2023-12-07T06:57:18;99572.31;;;-3.06;88.00
27685;BME280;46113;50.130;8.526;2023-12-07T06:59:45;99569.75;;;-2.97;87.58
27685;BME280;46113;50.130;8.526;2023-12-07T07:02:12;99577.53;;;-2.89;87.23
27685;BME280;46113;50.130;8.526;2023-12-07T07:04:39;99566.31;;;-2.88;87.20
27685;BME280;46113;50.130;8.526;2023-12-07T07:07:05;99562.03;;;-2.86;87.02
27685;BME280;46113;50.130;8.526;2023-12-07T07:09:33;99570.66;;;-2.84;86.95
27685;BME280;46113;50.130;8.526;2023-12-07T07:12:00;99564.63;;;-2.84;86.47
27685;BME280;46113;50.130;8.526;2023-12-07T07:14:26;99574.06;;;-3.02;86.50
27685;BME280;46113;50.130;8.526;2023-12-07T07:16:53;99569.78;;;-2.83;87.19
27685;BME280;46113;50.130;8.526;2023-12-07T07:19:20;99572.41;;;-2.77;86.39
27685;BME280;46113;50.130;8.526;2023-12-07T07:21:47;99571.56;;;-2.74;86.57
27685;BME280;46113;50.130;8.526;2023-12-07T07:24:14;99573.25;;;-2.76;86.14
27685;BME280;46113;50.130;8.526;2023-12-07T07:26:41;99569.81;;;-2.66;86.21
27685;BME280;46113;50.130;8.526;2023-12-07T07:29:08;99565.50;;;-2.68;85.91
27685;BME280;46113;50.130;8.526;2023-12-07T07:31:34;99572.41;;;-2.77;86.75
27685;BME280;46113;50.130;8.526;2023-12-07T07:34:02;99578.47;;;-2.68;86.32
27685;BME280;46113;50.130;8.526;2023-12-07T07:36:30;99572.41;;;-2.70;85.80
27685;BME280;46113;50.130;8.526;2023-12-07T07:38:57;99577.59;;;-2.72;85.84
27685;BME280;46113;50.130;8.526;2023-12-07T07:41:25;99575.88;;;-2.68;86.00
27685;BME280;46113;50.130;8.526;2023-12-07T07:43:51;99581.06;;;-2.71;85.91
27685;BME280;46113;50.130;8.526;2023-12-07T07:46:18;99588.84;;;-2.64;85.91
27685;BME280;46113;50.130;8.526;2023-12-07T07:48:45;99591.38;;;-2.78;85.44
27685;BME280;46113;50.130;8.526;2023-12-07T07:51:11;99593.16;;;-2.61;85.58
27685;BME280;46113;50.130;8.526;2023-12-07T07:53:38;99594.88;;;-2.60;84.88
27685;BME280;46113;50.130;8.526;2023-12-07T07:56:05;99606.09;;;-2.64;85.08
27685;BME280;46113;50.130;8.526;2023-12-07T07:58:32;99603.47;;;-2.75;84.86
27685;BME280;46113;50.130;8.526;2023-12-07T08:00:59;99595.75;;;-2.69;85.04
27685;BME280;46113;50.130;8.526;2023-12-07T08:03:26;99595.75;;;-2.55;85.37
27685;BME280;46113;50.130;8.526;2023-12-07T08:05:52;99590.56;;;-2.49;84.85
27685;BME280;46113;50.130;8.526;2023-12-07T08:08:19;99595.75;;;-2.47;84.80
27685;BME280;46113;50.130;8.526;2023-12-07T08:10:46;99601.81;;;-2.40;84.64
27685;BME280;46113;50.130;8.526;2023-12-07T08:13:22;99600.97;;;-2.24;84.63
27685;BME280;46113;50.130;8.526;2023-12-07T08:15:49;99601.81;;;-2.04;84.83
27685;BME280;46113;50.130;8.526;2023-12-07T08:18:15;99595.75;;;-1.82;84.82
27685;BME280;46113;50.130;8.526;2023-12-07T08:20:42;99599.22;;;-1.78;84.28
27685;BME280;46113;50.130;8.526;2023-12-07T08:23:09;99600.06;;;-1.60;82.99
27685;BME280;46113;50.130;8.526;2023-12-07T08:25:40;99597.44;;;-1.59;82.74
27685;BME280;46113;50.130;8.526;2023-12-07T08:28:07;99590.53;;;-1.58;82.22
27685;BME280;46113;50.130;8.526;2023-12-07T08:30:36;99599.97;;;-1.32;82.42
27685;BME280;46113;50.130;8.526;2023-12-07T08:33:03;99586.06;;;-1.22;82.50
27685;BME280;46113;50.130;8.526;2023-12-07T08:35:30;99585.22;;;-1.24;81.79
27685;BME280;46113;50.130;8.526;2023-12-07T08:37:57;99577.34;;;-1.02;82.00
27685;BME280;46113;50.130;8.526;2023-12-07T08:40:23;99574.69;;;-0.93;81.77
27685;BME280;46113;50.130;8.526;2023-12-07T08:42:50;99575.53;;;-0.91;81.21
27685;BME280;46113;50.130;8.526;2023-12-07T08:45:18;99576.53;;;-1.15;81.25
27685;BME280;46113;50.130;8.526;2023-12-07T08:47:45;99573.91;;;-1.04;80.88
27685;BME280;46113;50.130;8.526;2023-12-07T08:50:12;99565.25;;;-1.09;80.83
27685;BME280;46113;50.130;8.526;2023-12-07T08:52:39;99567.94;;;-1.26;80.68
27685;BME280;46113;50.130;8.526;2023-12-07T08:55:15;99560.19;;;-1.45;80.81
27685;BME280;46113;50.130;8.526;2023-12-07T08:57:43;99563.69;;;-1.45;80.66
27685;BME280;46113;50.130;8.526;2023-12-07T09:00:10;99562.81;;;-1.56;80.93
27685;BME280;46113;50.130;8.526;2023-12-07T09:02:39;99555.91;;;-1.59;80.51
27685;BME280;46113;50.130;8.526;2023-12-07T09:05:14;99556.81;;;-1.63;80.59
27685;BME280;46113;50.130;8.526;2023-12-07T09:07:41;99551.63;;;-1.64;80.48
27685;BME280;46113;50.130;8.526;2023-12-07T09:10:08;99553.38;;;-1.73;80.94
27685;BME280;46113;50.130;8.526;2023-12-07T09:12:36;99547.34;;;-1.83;80.71
27685;BME280;46113;50.130;8.526;2023-12-07T09:15:06;99553.41;;;-1.96;81.43
27685;BME280;46113;50.130;8.526;2023-12-07T09:17:40;99548.25;;;-2.02;81.21
27685;BME280;46113;50.130;8.526;2023-12-07T09:20:09;99543.91;;;-2.00;81.58
27685;BME280;46113;50.130;8.526;2023-12-07T09:22:42;99547.38;;;-2.06;81.81
27685;BME280;46113;50.130;8.526;2023-12-07T09:25:10;99549.97;;;-2.07;81.95
27685;BME280;46113;50.130;8.526;2023-12-07T09:27:38;99546.50;;;-2.08;81.96
27685;BME280;46113;50.130;8.526;2023-12-07T09:30:06;99549.09;;;-2.05;82.45
27685;BME280;46113;50.130;8.526;2023-12-07T09:32:41;99551.72;;;-2.05;82.17
27685;BME280;46113;50.130;8.526;2023-12-07T09:35:11;99549.97;;;-2.07;81.72
27685;BME280;46113;50.130;8.526;2023-12-07T09:37:50;99553.41;;;-2.15;82.03
27685;BME280;46113;50.130;8.526;2023-12-07T09:40:21;99558.59;;;-2.16;82.26
27685;BME280;46113;50.130;8.526;2023-12-07T09:42:49;99557.75;;;-2.17;82.50
27685;BME280;46113;50.130;8.526;2023-12-07T09:45:17;99556.00;;;-2.15;82.58
27685;BME280;46113;50.130;8.526;2023-12-07T09:47:50;99564.66;;;-2.14;82.36
27685;BME280;46113;50.130;8.526;2023-12-07T09:50:19;99562.94;;;-2.15;82.73
27685;BME280;46113;50.130;8.526;2023-12-07T09:52:49;99562.94;;;-2.14;82.70
27685;BME280;46113;50.130;8.526;2023-12-07T09:55:30;99559.50;;;-2.14;83.41
27685;BME280;46113;50.130;8.526;2023-12-07T09:57:57;99562.06;;;-2.16;83.22
27685;BME280;46113;50.130;8.526;2023-12-07T10:00:24;99552.56;;;-2.12;83.23
27685;BME280;46113;50.130;8.526;2023-12-07T10:02:52;99548.25;;;-2.13;83.25
27685;BME280;46113;50.130;8.526;2023-12-07T10:05:21;99558.63;;;-2.09;83.45
27685;BME280;46113;50.130;8.526;2023-12-07T10:07:49;99555.16;;;-2.07;83.08
27685;BME280;46113;50.130;8.526;2023-12-07T10:10:18;99561.22;;;-2.09;83.03
27685;BME280;46113;50.130;8.526;2023-12-07T10:12:54;99555.16;;;-2.12;83.32
27685;BME280;46113;50.130;8.526;2023-12-07T10:15:23;99556.00;;;-2.07;83.69
27685;BME280;46113;50.130;8.526;2023-12-07T10:20:28;99552.56;;;-2.01;82.77
27685;BME280;46113;50.130;8.526;2023-12-07T10:23:03;99543.91;;;-2.10;83.49
27685;BME280;46113;50.130;8.526;2023-12-07T10:25:31;99551.69;;;-2.08;83.81
27685;BME280;46113;50.130;8.526;2023-12-07T10:27:59;99544.78;;;-2.06;83.23
27685;BME280;46113;50.130;8.526;2023-12-07T10:30:27;99547.38;;;-2.04;83.68
27685;BME280;46113;50.130;8.526;2023-12-07T10:32:54;99538.72;;;-1.97;83.59
27685;BME280;46113;50.130;8.526;2023-12-07T10:35:20;99532.63;;;-1.77;83.28
27685;BME280;46113;50.130;8.526;2023-12-07T10:37:47;99536.06;;;-1.64;82.71
27685;BME280;46113;50.130;8.526;2023-12-07T10:40:14;99525.66;;;-1.58;82.70
27685;BME280;46113;50.130;8.526;2023-12-07T10:42:42;99528.25;;;-1.60;83.13
27685;BME280;46113;50.130;8.526;2023-12-07T10:45:14;99518.72;;;-1.50;82.91
27685;BME280;46113;50.130;8.526;2023-12-07T10:47:43;99518.63;;;-1.37;82.55
27685;BME280;46113;50.130;8.526;2023-12-07T10:50:13;99520.34;;;-1.32;82.22
27685;BME280;46113;50.130;8.526;2023-12-07T10:52:46;99518.59;;;-1.28;82.75
27685;BME280;46113;50.130;8.526;2023-12-07T10:55:28;99513.31;;;-1.16;82.26
27685;BME280;46113;50.130;8.526;2023-12-07T10:57:57;99509.84;;;-1.07;81.87
27685;BME280;46113;50.130;8.526;2023-12-07T11:00:27;99506.38;;;-1.06;81.39
27685;BME280;46113;50.130;8.526;2023-12-07T11:03:10;99494.31;;;-1.16;81.80
27685;BME280;46113;50.130;8.526;2023-12-07T11:05:38;99493.44;;;-1.13;81.63
27685;BME280;46113;50.130;8.526;2023-12-07T11:08:08;99494.31;;;-1.18;81.45
27685;BME280;46113;50.130;8.526;2023-12-07T11:10:45;99492.56;;;-1.14;81.58
27685;BME280;46113;50.130;8.526;2023-12-07T11:13:26;99486.56;;;-1.22;81.80
27685;BME280;46113;50.130;8.526;2023-12-07T11:15:56;99482.22;;;-1.22;81.50
27685;BME280;46113;50.130;8.526;2023-12-07T11:18:27;99473.56;;;-1.22;81.08
27685;BME280;46113;50.130;8.526;2023-12-07T11:20:55;99465.81;;;-1.29;81.03
27685;BME280;46113;50.130;8.526;2023-12-07T11:23:23;99470.09;;;-1.26;81.18
27685;BME280;46113;50.130;8.526;2023-12-07T11:25:52;99470.06;;;-1.15;81.28
27685;BME280;46113;50.130;8.526;2023-12-07T11:28:34;99470.84;;;-1.04;81.68
27685;BME280;46113;50.130;8.526;2023-12-07T11:31:02;99469.81;;;-0.79;81.94
27685;BME280;46113;50.130;8.526;2023-12-07T11:33:29;99473.19;;;-0.66;81.46
27685;BME280;46113;50.130;8.526;2023-12-07T11:36:04;99459.31;;;-0.64;82.02
27685;BME280;46113;50.130;8.526;2023-12-07T11:38:31;99456.59;;;-0.50;81.39
27685;BME280;46113;50.130;8.526;2023-12-07T11:41:00;99456.56;;;-0.46;80.62
27685;BME280;46113;50.130;8.526;2023-12-07T11:46:07;99447.66;;;-0.20;81.25
27685;BME280;46113;50.130;8.526;2023-12-07T11:48:34;99441.44;;;-0.08;81.21
27685;BME280;46113;50.130;8.526;2023-12-07T11:51:06;99446.56;;;-0.02;81.10
27685;BME280;46113;50.130;8.526;2023-12-07T11:53:37;99441.13;;;0.18;81.16
27685;BME280;46113;50.130;8.526;2023-12-07T11:56:09;99446.13;;;0.35;80.39
27685;BME280;46113;50.130;8.526;2023-12-07T11:58:37;99428.69;;;0.42;80.32
27685;BME280;46113;50.130;8.526;2023-12-07T12:01:07;99433.13;;;0.35;79.72
27685;BME280;46113;50.130;8.526;2023-12-07T12:03:35;99431.50;;;0.25;79.44
27685;BME280;46113;50.130;8.526;2023-12-07T12:06:05;99423.06;;;0.06;79.30
27685;BME280;46113;50.130;8.526;2023-12-07T12:08:32;99406.88;;;-0.20;79.03
27685;BME280;46113;50.130;8.526;2023-12-07T12:10:59;99393.13;;;-0.31;79.42
27685;BME280;46113;50.130;8.526;2023-12-07T12:13:34;99389.81;;;-0.47;79.33
27685;BME280;46113;50.130;8.526;2023-12-07T12:16:01;99402.91;;;-0.57;79.07
27685;BME280;46113;50.130;8.526;2023-12-07T12:18:32;99409.13;;;-0.70;78.86
27685;BME280;46113;50.130;8.526;2023-12-07T12:21:00;99405.84;;;-0.94;79.27
27685;BME280;46113;50.130;8.526;2023-12-07T12:23:27;99396.34;;;-0.97;79.70
27685;BME280;46113;50.130;8.526;2023-12-07T12:25:56;99386.00;;;-1.01;79.54
27685;BME280;46113;50.130;8.526;2023-12-07T12:28:23;99375.69;;;-1.14;80.14
27685;BME280;46113;50.130;8.526;2023-12-07T12:30:51;99373.16;;;-1.19;79.98
27685;BME280;46113;50.130;8.526;2023-12-07T12:33:19;99367.09;;;-1.21;80.02
27685;BME280;46113;50.130;8.526;2023-12-07T12:35:46;99369.72;;;-1.24;79.96
27685;BME280;46113;50.130;8.526;2023-12-07T12:38:13;99367.25;;;-1.39;80.60
27685;BME280;46113;50.130;8.526;2023-12-07T12:40:53;99368.91;;;-1.34;80.51
27685;BME280;46113;50.130;8.526;2023-12-07T12:43:20;99365.47;;;-1.34;80.31
27685;BME280;46113;50.130;8.526;2023-12-07T12:45:49;99362.06;;;-1.43;80.82
27685;BME280;46113;50.130;8.526;2023-12-07T12:48:32;99369.00;;;-1.49;81.12
27685;BME280;46113;50.130;8.526;2023-12-07T12:51:07;99361.22;;;-1.45;80.74
27685;BME280;46113;50.130;8.526;2023-12-07T12:53:34;99359.50;;;-1.50;81.15
27685;BME280;46113;50.130;8.526;2023-12-07T12:56:02;99358.63;;;-1.48;80.54
27685;BME280;46113;50.130;8.526;2023-12-07T12:58:29;99356.91;;;-1.50;81.13
27685;BME280;46113;50.130;8.526;2023-12-07T13:00:57;99360.38;;;-1.50;81.61
27685;BME280;46113;50.130;8.526;2023-12-07T13:03:24;99359.50;;;-1.50;81.43
27685;BME280;46113;50.130;8.526;2023-12-07T13:05:51;99356.81;;;-1.36;81.28
27685;BME280;46113;50.130;8.526;2023-12-07T13:08:17;99351.63;;;-1.38;81.19
27685;BME280;46113;50.130;8.526;2023-12-07T13:10:49;99349.03;;;-1.38;80.91
27685;BME280;46113;50.130;8.526;2023-12-07T13:13:20;99339.47;;;-1.33;80.53
27685;BME280;46113;50.130;8.526;2023-12-07T13:15:50;99342.06;;;-1.31;80.47
27685;BME280;46113;50.130;8.526;2023-12-07T13:18:17;99340.41;;;-1.40;80.96
27685;BME280;46113;50.130;8.526;2023-12-07T13:20:45;99343.88;;;-1.43;81.03
27685;BME280;46113;50.130;8.526;2023-12-07T13:23:21;99341.44;;;-1.64;81.84
27685;BME280;46113;50.130;8.526;2023-12-07T13:25:48;99333.66;;;-1.63;81.56
27685;BME280;46113;50.130;8.526;2023-12-07T13:28:15;99330.19;;;-1.63;81.53
27685;BME280;46113;50.130;8.526;2023-12-07T13:30:42;99331.06;;;-1.64;81.13
27685;BME280;46113;50.130;8.526;2023-12-07T13:33:08;99332.84;;;-1.76;81.88
27685;BME280;46113;50.130;8.526;2023-12-07T13:35:51;99329.38;;;-1.73;81.66
27685;BME280;46113;50.130;8.526;2023-12-07T13:38:19;99323.34;;;-1.78;81.74
27685;BME280;46113;50.130;8.526;2023-12-07T13:40:47;99321.66;;;-1.84;82.22
27685;BME280;46113;50.130;8.526;2023-12-07T13:43:16;99327.75;;;-1.88;82.11
27685;BME280;46113;50.130;8.526;2023-12-07T13:45:44;99327.75;;;-1.91;82.13
27685;BME280;46113;50.130;8.526;2023-12-07T13:48:11;99328.66;;;-1.96;82.25
27685;BME280;46113;50.130;8.526;2023-12-07T13:50:40;99332.97;;;-1.99;82.12
27685;BME280;46113;50.130;8.526;2023-12-07T13:53:06;99330.38;;;-1.99;82.35
27685;BME280;46113;50.130;8.526;2023-12-07T13:55:37;99331.28;;;-2.05;82.46
27685;BME280;46113;50.130;8.526;2023-12-07T13:58:05;99317.50;;;-2.13;82.42
27685;BME280;46113;50.130;8.526;2023-12-07T14:00:33;99321.84;;;-2.17;82.44
27685;BME280;46113;50.130;8.526;2023-12-07T14:03:01;99317.53;;;-2.23;83.22
27685;BME280;46113;50.130;8.526;2023-12-07T14:05:28;99314.94;;;-2.19;83.23
27685;BME280;46113;50.130;8.526;2023-12-07T14:07:55;99313.22;;;-2.20;82.63
27685;BME280;46113;50.130;8.526;2023-12-07T14:10:22;99315.81;;;-2.20;83.19
27685;BME280;46113;50.130;8.526;2023-12-07T14:12:49;99320.13;;;-2.21;82.93
27685;BME280;46113;50.130;8.526;2023-12-07T14:15:16;99317.56;;;-2.27;82.42
27685;BME280;46113;50.130;8.526;2023-12-07T14:17:51;99312.38;;;-2.27;82.28
27685;BME280;46113;50.130;8.526;2023-12-07T14:20:19;99303.72;;;-2.28;82.56
27685;BME280;46113;50.130;8.526;2023-12-07T14:23:10;99310.66;;;-2.33;82.49
27685;BME280;46113;50.130;8.526;2023-12-07T14:25:37;99308.97;;;-2.39;82.37
27685;BME280;46113;50.130;8.526;2023-12-07T14:28:06;99317.63;;;-2.44;82.20
27685;BME280;46113;50.130;8.526;2023-12-07T14:30:33;99313.31;;;-2.45;82.35
27685;BME280;46113;50.130;8.526;2023-12-07T14:33:01;99319.34;;;-2.53;82.95
27685;BME280;46113;50.130;8.526;2023-12-07T14:35:29;99321.97;;;-2.60;83.12
27685;BME280;46113;50.130;8.526;2023-12-07T14:37:55;99320.25;;;-2.63;83.44
27685;BME280;46113;50.130;8.526;2023-12-07T14:40:22;99315.97;;;-2.72;83.25
27685;BME280;46113;50.130;8.526;2023-12-07T14:42:49;99311.63;;;-2.65;83.15
27685;BME280;46113;50.130;8.526;2023-12-07T14:45:16;99314.22;;;-2.67;82.92
27685;BME280;46113;50.130;8.526;2023-12-07T14:47:42;99317.72;;;-2.76;83.06
27685;BME280;46113;50.130;8.526;2023-12-07T14:50:10;99314.25;;;-2.81;82.84
27685;BME280;46113;50.130;8.526;2023-12-07T14:52:36;99312.53;;;-2.85;83.26
27685;BME280;46113;50.130;8.526;2023-12-07T14:55:05;99310.81;;;-2.89;83.23
27685;BME280;46113;50.130;8.526;2023-12-07T14:57:32;99311.72;;;-3.07;83.76
27685;BME280;46113;50.130;8.526;2023-12-07T14:59:58;99301.34;;;-2.95;83.32
27685;BME280;46113;50.130;8.526;2023-12-07T15:02:26;99293.56;;;-2.98;82.97
27685;BME280;46113;50.130;8.526;2023-12-07T15:04:54;99301.34;;;-3.07;83.38
27685;BME280;46113;50.130;8.526;2023-12-07T15:07:20;99304.81;;;-3.10;83.22
27685;BME280;46113;50.130;8.526;2023-12-07T15:09:47;99304.81;;;-3.07;82.88
27685;BME280;46113;50.130;8.526;2023-12-07T15:12:15;99300.47;;;-3.16;83.04
27685;BME280;46113;50.130;8.526;2023-12-07T15:14:45;99298.78;;;-3.37;82.76
27685;BME280;46113;50.130;8.526;2023-12-07T15:17:12;99291.03;;;-3.28;82.93
27685;BME280;46113;50.130;8.526;2023-12-07T15:19:39;99293.59;;;-3.26;82.65
27685;BME280;46113;50.130;8.526;2023-12-07T15:22:08;99289.28;;;-3.36;82.75
27685;BME280;46113;50.130;8.526;2023-12-07T15:24:35;99286.69;;;-3.52;82.24
27685;BME280;46113;50.130;8.526;2023-12-07T15:27:06;99295.34;;;-3.51;82.57
27685;BME280;46113;50.130;8.526;2023-12-07T15:29:34;99291.88;;;-3.58;82.83
27685;BME280;46113;50.130;8.526;2023-12-07T15:32:03;99297.88;;;-3.81;82.82
27685;BME280;46113;50.130;8.526;2023-12-07T15:34:30;99295.28;;;-3.90;83.20
27685;BME280;46113;50.130;8.526;2023-12-07T15:37:06;99287.53;;;-3.92;83.13
27685;BME280;46113;50.130;8.526;2023-12-07T15:39:33;99288.38;;;-3.93;83.45
27685;BME280;46113;50.130;8.526;2023-12-07T15:42:00;99276.31;;;-3.83;82.70
27685;BME280;46113;50.130;8.526;2023-12-07T15:44:29;99277.16;;;-3.97;82.86
27685;BME280;46113;50.130;8.526;2023-12-07T15:46:57;99283.19;;;-3.99;83.26
27685;BME280;46113;50.130;8.526;2023-12-07T15:49:24;99280.63;;;-3.95;82.96
27685;BME280;46113;50.130;8.526;2023-12-07T15:51:52;99264.22;;;-3.95;83.74
27685;BME280;46113;50.130;8.526;2023-12-07T15:54:24;99258.22;;;-3.91;83.44
27685;BME280;46113;50.130;8.526;2023-12-07T15:57:04;99255.63;;;-3.97;83.95
27685;BME280;46113;50.130;8.526;2023-12-07T15:59:31;99252.16;;;-3.98;83.41
27685;BME280;46113;50.130;8.526;2023-12-07T16:01:58;99250.47;;;-3.96;83.76
27685;BME280;46113;50.130;8.526;2023-12-07T16:04:25;99257.34;;;-3.98;83.46
27685;BME280;46113;50.130;8.526;2023-12-07T16:07:01;99244.41;;;-4.04;83.71
27685;BME280;46113;50.130;8.526;2023-12-07T16:09:35;99239.19;;;-4.24;83.22
27685;BME280;46113;50.130;8.526;2023-12-07T16:12:03;99239.25;;;-4.01;83.08
27685;BME280;46113;50.130;8.526;2023-12-07T16:14:36;99248.69;;;-4.12;83.16
27685;BME280;46113;50.130;8.526;2023-12-07T16:17:04;99243.56;;;-4.00;82.91
27685;BME280;46113;50.130;8.526;2023-12-07T16:19:31;99237.47;;;-4.19;83.74
27685;BME280;46113;50.130;8.526;2023-12-07T16:21:58;99237.53;;;-4.03;83.72
27685;BME280;46113;50.130;8.526;2023-12-07T16:24:25;99241.84;;;-4.01;83.10
27685;BME280;46113;50.130;8.526;2023-12-07T16:26:51;99246.97;;;-4.15;83.35
27685;BME280;46113;50.130;8.526;2023-12-07T16:29:19;99240.09;;;-4.11;83.73
27685;BME280;46113;50.130;8.526;2023-12-07T16:31:47;99238.38;;;-3.97;82.71
27685;BME280;46113;50.130;8.526;2023-12-07T16:34:14;99228.81;;;-4.32;83.02
27685;BME280;46113;50.130;8.526;2023-12-07T16:36:41;99237.44;;;-4.27;83.52
27685;BME280;46113;50.130;8.526;2023-12-07T16:39:09;99232.34;;;-4.13;82.54
27685;BME280;46113;50.130;8.526;2023-12-07T16:41:37;99239.22;;;-4.18;83.22
27685;BME280;46113;50.130;8.526;2023-12-07T16:44:14;99244.41;;;-4.12;83.21
27685;BME280;46113;50.130;8.526;2023-12-07T16:46:44;99247.84;;;-4.10;82.98
27685;BME280;46113;50.130;8.526;2023-12-07T16:49:12;99237.53;;;-4.03;82.75
27685;BME280;46113;50.130;8.526;2023-12-07T16:51:39;99239.25;;;-3.93;82.75
27685;BME280;46113;50.130;8.526;2023-12-07T16:54:06;99227.19;;;-3.97;82.47
27685;BME280;46113;50.130;8.526;2023-12-07T16:56:33;99223.75;;;-3.84;82.95
27685;BME280;46113;50.130;8.526;2023-12-07T16:59:00;99219.41;;;-4.00;82.60
27685;BME280;46113;50.130;8.526;2023-12-07T17:01:27;99217.69;;;-3.89;82.20
27685;BME280;46113;50.130;8.526;2023-12-07T17:03:54;99211.69;;;-3.91;82.76
27685;BME280;46113;50.130;8.526;2023-12-07T17:06:21;99199.63;;;-3.69;81.99
27685;BME280;46113;50.130;8.526;2023-12-07T17:08:47;99195.28;;;-3.84;82.00
27685;BME280;46113;50.130;8.526;2023-12-07T17:11:28;99185.81;;;-3.75;82.85
27685;BME280;46113;50.130;8.526;2023-12-07T17:13:55;99179.81;;;-3.85;82.27
27685;BME280;46113;50.130;8.526;2023-12-07T17:16:22;99181.50;;;-3.97;82.31
27685;BME280;46113;50.130;8.526;2023-12-07T17:18:50;99170.31;;;-3.75;81.97
27685;BME280;46113;50.130;8.526;2023-12-07T17:21:18;99165.97;;;-3.64;82.04
27685;BME280;46113;50.130;8.526;2023-12-07T17:23:45;99172.91;;;-3.75;81.59
27685;BME280;46113;50.130;8.526;2023-12-07T17:26:11;99172.91;;;-3.66;81.57
27685;BME280;46113;50.130;8.526;2023-12-07T17:28:38;99158.25;;;-3.70;81.69
27685;BME280;46113;50.130;8.526;2023-12-07T17:31:05;99170.28;;;-3.49;81.42
27685;BME280;46113;50.130;8.526;2023-12-07T17:33:32;99158.22;;;-3.64;81.84
27685;BME280;46113;50.130;8.526;2023-12-07T17:35:58;99159.97;;;-3.57;81.96
27685;BME280;46113;50.130;8.526;2023-12-07T17:38:25;99142.66;;;-3.41;80.78
27685;BME280;46113;50.130;8.526;2023-12-07T17:40:52;99156.50;;;-3.54;80.84
27685;BME280;46113;50.130;8.526;2023-12-07T17:43:18;99151.28;;;-3.40;81.12
27685;BME280;46113;50.130;8.526;2023-12-07T17:45:45;99146.13;;;-3.40;81.40
27685;BME280;46113;50.130;8.526;2023-12-07T17:48:12;99137.50;;;-3.42;82.13
27685;BME280;46113;50.130;8.526;2023-12-07T17:50:39;99146.09;;;-3.28;81.99
27685;BME280;46113;50.130;8.526;2023-12-07T17:53:06;99139.19;;;-3.36;82.18
27685;BME280;46113;50.130;8.526;2023-12-07T17:55:32;99146.13;;;-3.35;82.29
27685;BME280;46113;50.130;8.526;2023-12-07T17:57:59;99150.44;;;-3.45;82.29
27685;BME280;46113;50.130;8.526;2023-12-07T18:00:26;99153.94;;;-3.68;82.20
27685;BME280;46113;50.130;8.526;2023-12-07T18:02:52;99153.91;;;-3.48;81.74
27685;BME280;46113;50.130;8.526;2023-12-07T18:05:19;99150.44;;;-3.44;82.14
27685;BME280;46113;50.130;8.526;2023-12-07T18:07:46;99163.34;;;-3.26;81.33
27685;BME280;46113;50.130;8.526;2023-12-07T18:10:13;99165.06;;;-3.25;81.82
27685;BME280;46113;50.130;8.526;2023-12-07T18:12:40;99167.63;;;-3.21;81.64
27685;BME280;46113;50.130;8.526;2023-12-07T18:15:08;99163.38;;;-3.37;81.68
27685;BME280;46113;50.130;8.526;2023-12-07T18:17:34;99159.88;;;-3.19;81.10
27685;BME280;46113;50.130;8.526;2023-12-07T18:20:01;99152.06;;;-3.08;80.93
27685;BME280;46113;50.130;8.526;2023-12-07T18:22:29;99152.97;;;-3.23;80.83
27685;BME280;46113;50.130;8.526;2023-12-07T18:24:55;99143.50;;;-3.23;80.96
27685;BME280;46113;50.130;8.526;2023-12-07T18:27:22;99133.13;;;-3.21;81.41